OIHH  Hamadan Airport

Add Bookmark

Hamadan, Iran

Status IATA
Operational HDM
Latitude Longitude
34° 52' 9" N 48° 33' 9" E
34.869202 48.552502
Local (DST + 5) UTC (GMT + 4)
Nov 23, 2014 04:38 Nov 23, 2014 13:08
Sunrise-Sunset Local UTC
Begin Civil Twilight 06:29 02:59
Sunrise 06:56 03:26
Sunset 05:07 13:37
End Civil Twilight 05:35 14:05

Current Weather

METAR Observed VFR
OIHH 221200Z 20006KT 9999 BKN040 14/04 Q1014 Sat, Nov 22, 2014 @ 12:00 UTC
(1 Day, 1 Hour, 8 Minutes ago)
Visual Flight Rules
Wind Visibility Clouds Conditions
200° at 6 knots (11 kph) 10 km or more
  • Broken at 4,000' AGL
  • No significant weather
Temperatures Readings Precipitation
Current Temp 14°C (57°F)
Dewpoint 4°C (39°F)
Humidity 51%
Altimeter 29.94"Hg
Sea Level Pressure 1014mb
Field Elevation 5764.44'
None Recorded

24 Hour Weather History

Loading
-

24 Hour Weather Graphs

Loading
-

CheckWX.com is intended as a tool to help pilots better visualize weather data. It is not intended as a substitute for an official weather briefing obtained from a Flight Service Station. CheckWX.com does not meet the FAA requirements for an official pre-flight weather briefing. Therefore, it's important that pilots still call and obtain an official FSS pre-flight weather briefing.